sensor_id;sensor_type;location;lat;lon;timestamp;P1;durP1;ratioP1;P2;durP2;ratioP2
2029;SDS011;1020;48.854;8.830;2023-02-01T00:00:52;1.77;;;1.63;;
2029;SDS011;1020;48.854;8.830;2023-02-01T00:03:19;1.83;;;1.73;;
2029;SDS011;1020;48.854;8.830;2023-02-01T00:05:55;3.33;;;2.30;;
2029;SDS011;1020;48.854;8.830;2023-02-01T00:08:23;1.53;;;1.43;;
2029;SDS011;1020;48.854;8.830;2023-02-01T00:10:57;1.40;;;1.30;;
2029;SDS011;1020;48.854;8.830;2023-02-01T00:13:25;2.40;;;2.20;;
2029;SDS011;1020;48.854;8.830;2023-02-01T00:16:11;2.30;;;2.10;;
2029;SDS011;1020;48.854;8.830;2023-02-01T00:18:41;2.13;;;1.93;;
2029;SDS011;1020;48.854;8.830;2023-02-01T00:21:16;2.10;;;2.00;;
2029;SDS011;1020;48.854;8.830;2023-02-01T00:27:03;2.07;;;1.90;;
2029;SDS011;1020;48.854;8.830;2023-02-01T00:29:36;2.23;;;2.13;;
2029;SDS011;1020;48.854;8.830;2023-02-01T00:32:19;2.20;;;2.10;;
2029;SDS011;1020;48.854;8.830;2023-02-01T00:35:23;1.83;;;1.73;;
2029;SDS011;1020;48.854;8.830;2023-02-01T00:41:18;2.00;;;1.90;;
2029;SDS011;1020;48.854;8.830;2023-02-01T00:44:01;1.87;;;1.77;;
2029;SDS011;1020;48.854;8.830;2023-02-01T00:46:31;4.30;;;2.37;;
2029;SDS011;1020;48.854;8.830;2023-02-01T00:48:57;1.67;;;1.57;;
2029;SDS011;1020;48.854;8.830;2023-02-01T00:51:25;1.90;;;1.77;;
2029;SDS011;1020;48.854;8.830;2023-02-01T00:53:53;1.57;;;1.47;;
2029;SDS011;1020;48.854;8.830;2023-02-01T00:56:22;2.30;;;1.90;;
2029;SDS011;1020;48.854;8.830;2023-02-01T00:58:49;1.90;;;1.80;;
2029;SDS011;1020;48.854;8.830;2023-02-01T01:01:17;1.97;;;1.87;;
2029;SDS011;1020;48.854;8.830;2023-02-01T01:03:45;1.80;;;1.70;;
2029;SDS011;1020;48.854;8.830;2023-02-01T01:06:16;2.00;;;1.60;;
2029;SDS011;1020;48.854;8.830;2023-02-01T01:08:45;2.17;;;1.87;;
2029;SDS011;1020;48.854;8.830;2023-02-01T01:11:14;1.90;;;1.80;;
2029;SDS011;1020;48.854;8.830;2023-02-01T01:13:45;1.80;;;1.70;;
2029;SDS011;1020;48.854;8.830;2023-02-01T01:16:12;1.80;;;1.70;;
2029;SDS011;1020;48.854;8.830;2023-02-01T01:18:40;2.73;;;1.60;;
2029;SDS011;1020;48.854;8.830;2023-02-01T01:21:07;2.00;;;1.90;;
2029;SDS011;1020;48.854;8.830;2023-02-01T01:23:35;1.97;;;1.87;;
2029;SDS011;1020;48.854;8.830;2023-02-01T01:26:04;1.93;;;1.70;;
2029;SDS011;1020;48.854;8.830;2023-02-01T01:28:31;3.60;;;1.67;;
2029;SDS011;1020;48.854;8.830;2023-02-01T01:31:00;1.63;;;1.53;;
2029;SDS011;1020;48.854;8.830;2023-02-01T01:33:27;1.87;;;1.77;;
2029;SDS011;1020;48.854;8.830;2023-02-01T01:35:53;2.50;;;2.30;;
2029;SDS011;1020;48.854;8.830;2023-02-01T01:38:20;2.03;;;1.93;;
2029;SDS011;1020;48.854;8.830;2023-02-01T01:40:47;2.30;;;2.13;;
2029;SDS011;1020;48.854;8.830;2023-02-01T01:43:16;3.13;;;2.30;;
2029;SDS011;1020;48.854;8.830;2023-02-01T01:45:47;1.80;;;1.70;;
2029;SDS011;1020;48.854;8.830;2023-02-01T01:48:16;2.27;;;2.07;;
2029;SDS011;1020;48.854;8.830;2023-02-01T01:50:47;2.30;;;2.10;;
2029;SDS011;1020;48.854;8.830;2023-02-01T01:53:18;2.30;;;2.10;;
2029;SDS011;1020;48.854;8.830;2023-02-01T01:55:48;1.80;;;1.70;;
2029;SDS011;1020;48.854;8.830;2023-02-01T01:58:18;1.70;;;1.60;;
2029;SDS011;1020;48.854;8.830;2023-02-01T02:00:47;1.83;;;1.73;;
2029;SDS011;1020;48.854;8.830;2023-02-01T02:03:17;1.57;;;1.47;;
2029;SDS011;1020;48.854;8.830;2023-02-01T02:05:46;2.20;;;1.83;;
2029;SDS011;1020;48.854;8.830;2023-02-01T02:08:16;2.80;;;2.50;;
2029;SDS011;1020;48.854;8.830;2023-02-01T02:10:45;2.00;;;1.70;;
2029;SDS011;1020;48.854;8.830;2023-02-01T02:13:27;1.87;;;1.77;;
2029;SDS011;1020;48.854;8.830;2023-02-01T02:16:04;1.73;;;1.60;;
2029;SDS011;1020;48.854;8.830;2023-02-01T02:18:41;3.30;;;1.80;;
2029;SDS011;1020;48.854;8.830;2023-02-01T02:21:17;1.70;;;1.50;;
2029;SDS011;1020;48.854;8.830;2023-02-01T02:23:59;1.83;;;1.73;;
2029;SDS011;1020;48.854;8.830;2023-02-01T02:27:04;2.10;;;1.93;;
2029;SDS011;1020;48.854;8.830;2023-02-01T02:29:55;1.80;;;1.67;;
2029;SDS011;1020;48.854;8.830;2023-02-01T02:32:59;2.10;;;1.50;;
2029;SDS011;1020;48.854;8.830;2023-02-01T02:35:51;1.70;;;1.60;;
2029;SDS011;1020;48.854;8.830;2023-02-01T02:38:26;1.60;;;1.50;;
2029;SDS011;1020;48.854;8.830;2023-02-01T02:41:00;1.77;;;1.43;;
2029;SDS011;1020;48.854;8.830;2023-02-01T02:43:32;1.37;;;1.27;;
2029;SDS011;1020;48.854;8.830;2023-02-01T02:46:26;1.70;;;1.60;;
2029;SDS011;1020;48.854;8.830;2023-02-01T02:49:18;1.60;;;1.50;;
2029;SDS011;1020;48.854;8.830;2023-02-01T02:51:50;1.80;;;1.70;;
2029;SDS011;1020;48.854;8.830;2023-02-01T02:54:40;1.43;;;1.33;;
2029;SDS011;1020;48.854;8.830;2023-02-01T02:57:18;1.53;;;1.43;;
2029;SDS011;1020;48.854;8.830;2023-02-01T03:00:05;1.80;;;1.70;;
2029;SDS011;1020;48.854;8.830;2023-02-01T03:02:53;1.97;;;1.80;;
2029;SDS011;1020;48.854;8.830;2023-02-01T03:05:40;1.80;;;1.70;;
2029;SDS011;1020;48.854;8.830;2023-02-01T03:08:11;1.47;;;1.47;;
2029;SDS011;1020;48.854;8.830;2023-02-01T03:10:42;1.80;;;1.70;;
2029;SDS011;1020;48.854;8.830;2023-02-01T03:13:15;1.73;;;1.50;;
2029;SDS011;1020;48.854;8.830;2023-02-01T03:15:48;1.40;;;1.30;;
2029;SDS011;1020;48.854;8.830;2023-02-01T03:18:21;1.43;;;1.33;;
2029;SDS011;1020;48.854;8.830;2023-02-01T03:20:54;1.10;;;1.10;;
2029;SDS011;1020;48.854;8.830;2023-02-01T03:23:26;1.30;;;1.20;;
2029;SDS011;1020;48.854;8.830;2023-02-01T03:25:57;1.63;;;1.50;;
2029;SDS011;1020;48.854;8.830;2023-02-01T03:28:26;3.37;;;1.30;;
2029;SDS011;1020;48.854;8.830;2023-02-01T03:30:56;1.60;;;1.50;;
2029;SDS011;1020;48.854;8.830;2023-02-01T03:33:23;1.53;;;1.40;;
2029;SDS011;1020;48.854;8.830;2023-02-01T03:35:57;1.50;;;1.40;;
2029;SDS011;1020;48.854;8.830;2023-02-01T03:38:31;1.30;;;1.20;;
2029;SDS011;1020;48.854;8.830;2023-02-01T03:41:03;1.70;;;1.60;;
2029;SDS011;1020;48.854;8.830;2023-02-01T03:43:36;3.17;;;1.60;;
2029;SDS011;1020;48.854;8.830;2023-02-01T03:46:12;1.53;;;1.43;;
2029;SDS011;1020;48.854;8.830;2023-02-01T03:48:45;1.47;;;1.23;;
2029;SDS011;1020;48.854;8.830;2023-02-01T03:51:12;1.77;;;1.67;;
2029;SDS011;1020;48.854;8.830;2023-02-01T03:53:41;1.97;;;1.87;;
2029;SDS011;1020;48.854;8.830;2023-02-01T03:56:12;1.40;;;1.30;;
2029;SDS011;1020;48.854;8.830;2023-02-01T03:58:39;1.60;;;1.50;;
2029;SDS011;1020;48.854;8.830;2023-02-01T04:01:06;1.67;;;1.57;;
2029;SDS011;1020;48.854;8.830;2023-02-01T04:03:33;1.87;;;1.53;;
2029;SDS011;1020;48.854;8.830;2023-02-01T04:06:01;1.70;;;1.60;;
2029;SDS011;1020;48.854;8.830;2023-02-01T04:08:38;1.93;;;1.83;;
2029;SDS011;1020;48.854;8.830;2023-02-01T04:11:23;2.30;;;2.10;;
2029;SDS011;1020;48.854;8.830;2023-02-01T04:13:52;2.00;;;1.90;;
2029;SDS011;1020;48.854;8.830;2023-02-01T04:16:19;2.17;;;2.07;;
2029;SDS011;1020;48.854;8.830;2023-02-01T04:18:46;2.63;;;2.07;;
2029;SDS011;1020;48.854;8.830;2023-02-01T04:21:12;1.60;;;1.50;;
2029;SDS011;1020;48.854;8.830;2023-02-01T04:23:39;1.97;;;1.87;;
2029;SDS011;1020;48.854;8.830;2023-02-01T04:26:07;2.73;;;2.53;;
2029;SDS011;1020;48.854;8.830;2023-02-01T04:28:34;1.60;;;1.50;;
2029;SDS011;1020;48.854;8.830;2023-02-01T04:31:00;1.60;;;1.50;;
2029;SDS011;1020;48.854;8.830;2023-02-01T04:33:27;1.80;;;1.70;;
2029;SDS011;1020;48.854;8.830;2023-02-01T04:35:54;2.20;;;2.10;;
2029;SDS011;1020;48.854;8.830;2023-02-01T04:38:21;1.80;;;1.70;;
2029;SDS011;1020;48.854;8.830;2023-02-01T04:40:48;2.20;;;1.97;;
2029;SDS011;1020;48.854;8.830;2023-02-01T04:43:17;2.20;;;2.10;;
2029;SDS011;1020;48.854;8.830;2023-02-01T04:45:46;1.60;;;1.50;;
2029;SDS011;1020;48.854;8.830;2023-02-01T04:48:14;1.97;;;1.77;;
2029;SDS011;1020;48.854;8.830;2023-02-01T04:50:41;1.90;;;1.80;;
2029;SDS011;1020;48.854;8.830;2023-02-01T04:53:20;1.80;;;1.70;;
2029;SDS011;1020;48.854;8.830;2023-02-01T04:56:30;2.10;;;1.93;;
2029;SDS011;1020;48.854;8.830;2023-02-01T04:59:17;1.93;;;1.83;;
2029;SDS011;1020;48.854;8.830;2023-02-01T05:01:43;3.23;;;2.50;;
2029;SDS011;1020;48.854;8.830;2023-02-01T05:04:10;2.53;;;2.07;;
2029;SDS011;1020;48.854;8.830;2023-02-01T05:06:37;1.97;;;1.87;;
2029;SDS011;1020;48.854;8.830;2023-02-01T05:09:04;2.00;;;1.90;;
2029;SDS011;1020;48.854;8.830;2023-02-01T05:11:31;2.63;;;2.43;;
2029;SDS011;1020;48.854;8.830;2023-02-01T05:14:16;2.70;;;2.50;;
2029;SDS011;1020;48.854;8.830;2023-02-01T05:16:43;2.80;;;2.30;;
2029;SDS011;1020;48.854;8.830;2023-02-01T05:19:10;2.00;;;1.90;;
2029;SDS011;1020;48.854;8.830;2023-02-01T05:21:36;2.77;;;2.57;;
2029;SDS011;1020;48.854;8.830;2023-02-01T05:24:03;2.70;;;2.50;;
2029;SDS011;1020;48.854;8.830;2023-02-01T05:26:38;3.40;;;3.03;;
2029;SDS011;1020;48.854;8.830;2023-02-01T05:29:06;1.80;;;1.70;;
2029;SDS011;1020;48.854;8.830;2023-02-01T05:31:35;2.87;;;2.60;;
2029;SDS011;1020;48.854;8.830;2023-02-01T05:34:02;2.90;;;2.70;;
2029;SDS011;1020;48.854;8.830;2023-02-01T05:36:29;3.20;;;2.70;;
2029;SDS011;1020;48.854;8.830;2023-02-01T05:38:56;2.47;;;2.27;;
2029;SDS011;1020;48.854;8.830;2023-02-01T05:41:23;2.13;;;2.03;;
2029;SDS011;1020;48.854;8.830;2023-02-01T05:43:50;3.70;;;2.80;;
2029;SDS011;1020;48.854;8.830;2023-02-01T05:46:17;3.37;;;2.40;;
2029;SDS011;1020;48.854;8.830;2023-02-01T05:48:45;3.03;;;2.83;;
2029;SDS011;1020;48.854;8.830;2023-02-01T05:51:12;3.70;;;2.93;;
2029;SDS011;1020;48.854;8.830;2023-02-01T05:53:38;3.77;;;3.37;;
2029;SDS011;1020;48.854;8.830;2023-02-01T05:56:05;3.53;;;3.23;;
2029;SDS011;1020;48.854;8.830;2023-02-01T05:58:32;3.57;;;3.27;;
2029;SDS011;1020;48.854;8.830;2023-02-01T06:00:59;3.43;;;3.13;;
2029;SDS011;1020;48.854;8.830;2023-02-01T06:03:26;4.70;;;4.30;;
2029;SDS011;1020;48.854;8.830;2023-02-01T06:05:54;4.13;;;3.73;;
2029;SDS011;1020;48.854;8.830;2023-02-01T06:08:21;4.53;;;3.73;;
2029;SDS011;1020;48.854;8.830;2023-02-01T06:10:49;5.70;;;5.20;;
2029;SDS011;1020;48.854;8.830;2023-02-01T06:13:16;7.33;;;5.70;;
2029;SDS011;1020;48.854;8.830;2023-02-01T06:15:45;6.23;;;5.03;;
2029;SDS011;1020;48.854;8.830;2023-02-01T06:18:11;5.40;;;4.90;;
2029;SDS011;1020;48.854;8.830;2023-02-01T06:20:40;5.63;;;5.10;;
2029;SDS011;1020;48.854;8.830;2023-02-01T06:23:08;6.00;;;5.23;;
2029;SDS011;1020;48.854;8.830;2023-02-01T06:25:39;5.83;;;4.70;;
2029;SDS011;1020;48.854;8.830;2023-02-01T06:28:36;7.23;;;5.37;;
2029;SDS011;1020;48.854;8.830;2023-02-01T06:31:03;5.50;;;4.57;;
2029;SDS011;1020;48.854;8.830;2023-02-01T06:33:32;5.93;;;5.40;;
2029;SDS011;1020;48.854;8.830;2023-02-01T06:36:00;6.57;;;5.30;;
2029;SDS011;1020;48.854;8.830;2023-02-01T06:38:30;7.93;;;5.00;;
2029;SDS011;1020;48.854;8.830;2023-02-01T06:40:59;11.67;;;5.60;;
2029;SDS011;1020;48.854;8.830;2023-02-01T06:43:27;7.30;;;5.33;;
2029;SDS011;1020;48.854;8.830;2023-02-01T06:45:58;4.63;;;4.23;;
2029;SDS011;1020;48.854;8.830;2023-02-01T06:48:26;8.90;;;5.40;;
2029;SDS011;1020;48.854;8.830;2023-02-01T06:50:53;6.67;;;5.00;;
2029;SDS011;1020;48.854;8.830;2023-02-01T06:53:19;5.70;;;4.40;;
2029;SDS011;1020;48.854;8.830;2023-02-01T06:55:54;8.07;;;4.83;;
2029;SDS011;1020;48.854;8.830;2023-02-01T06:58:22;5.50;;;4.60;;
2029;SDS011;1020;48.854;8.830;2023-02-01T07:00:49;6.40;;;4.50;;
2029;SDS011;1020;48.854;8.830;2023-02-01T07:03:21;4.63;;;4.23;;
2029;SDS011;1020;48.854;8.830;2023-02-01T07:06:10;7.20;;;5.40;;
2029;SDS011;1020;48.854;8.830;2023-02-01T07:15:26;5.57;;;4.93;;
2029;SDS011;1020;48.854;8.830;2023-02-01T07:18:19;7.30;;;5.57;;
2029;SDS011;1020;48.854;8.830;2023-02-01T07:21:16;6.90;;;5.60;;
2029;SDS011;1020;48.854;8.830;2023-02-01T07:24:31;6.77;;;5.30;;
2029;SDS011;1020;48.854;8.830;2023-02-01T07:27:49;8.80;;;5.40;;
2029;SDS011;1020;48.854;8.830;2023-02-01T07:33:59;6.53;;;4.63;;
2029;SDS011;1020;48.854;8.830;2023-02-01T07:36:30;6.93;;;5.30;;
2029;SDS011;1020;48.854;8.830;2023-02-01T07:38:58;10.60;;;4.93;;
2029;SDS011;1020;48.854;8.830;2023-02-01T07:41:25;6.77;;;5.23;;
2029;SDS011;1020;48.854;8.830;2023-02-01T07:43:52;5.73;;;5.13;;
2029;SDS011;1020;48.854;8.830;2023-02-01T07:46:32;5.30;;;4.73;;
2029;SDS011;1020;48.854;8.830;2023-02-01T07:49:01;10.77;;;5.67;;
2029;SDS011;1020;48.854;8.830;2023-02-01T07:51:45;4.97;;;4.50;;
2029;SDS011;1020;48.854;8.830;2023-02-01T07:54:52;9.27;;;6.17;;
2029;SDS011;1020;48.854;8.830;2023-02-01T07:57:19;10.30;;;6.93;;
2029;SDS011;1020;48.854;8.830;2023-02-01T07:59:47;18.60;;;10.63;;
2029;SDS011;1020;48.854;8.830;2023-02-01T08:02:38;59.63;;;32.13;;
2029;SDS011;1020;48.854;8.830;2023-02-01T08:05:10;16.67;;;10.30;;
2029;SDS011;1020;48.854;8.830;2023-02-01T08:08:15;9.03;;;7.13;;
2029;SDS011;1020;48.854;8.830;2023-02-01T08:10:43;9.17;;;7.17;;
2029;SDS011;1020;48.854;8.830;2023-02-01T08:13:10;13.33;;;9.80;;
2029;SDS011;1020;48.854;8.830;2023-02-01T08:15:36;9.30;;;8.40;;
2029;SDS011;1020;48.854;8.830;2023-02-01T08:18:03;9.20;;;5.50;;
2029;SDS011;1020;48.854;8.830;2023-02-01T08:20:30;5.53;;;4.20;;
2029;SDS011;1020;48.854;8.830;2023-02-01T08:22:59;6.80;;;4.80;;
2029;SDS011;1020;48.854;8.830;2023-02-01T08:25:26;7.67;;;5.20;;
2029;SDS011;1020;48.854;8.830;2023-02-01T08:27:54;8.13;;;4.30;;
2029;SDS011;1020;48.854;8.830;2023-02-01T08:30:21;8.57;;;3.90;;
2029;SDS011;1020;48.854;8.830;2023-02-01T08:32:48;5.90;;;4.23;;
2029;SDS011;1020;48.854;8.830;2023-02-01T08:35:14;6.03;;;4.30;;
2029;SDS011;1020;48.854;8.830;2023-02-01T08:37:41;4.90;;;4.30;;
2029;SDS011;1020;48.854;8.830;2023-02-01T08:40:08;6.37;;;4.00;;
2029;SDS011;1020;48.854;8.830;2023-02-01T08:42:36;8.90;;;5.17;;
2029;SDS011;1020;48.854;8.830;2023-02-01T08:45:20;6.30;;;4.10;;
2029;SDS011;1020;48.854;8.830;2023-02-01T08:47:49;8.90;;;4.30;;
2029;SDS011;1020;48.854;8.830;2023-02-01T08:50:17;6.63;;;3.70;;
2029;SDS011;1020;48.854;8.830;2023-02-01T08:52:44;9.10;;;4.63;;
2029;SDS011;1020;48.854;8.830;2023-02-01T08:55:11;6.90;;;3.80;;
2029;SDS011;1020;48.854;8.830;2023-02-01T08:57:39;6.30;;;4.37;;
2029;SDS011;1020;48.854;8.830;2023-02-01T09:00:06;6.93;;;3.73;;
2029;SDS011;1020;48.854;8.830;2023-02-01T09:02:38;9.43;;;4.80;;
2029;SDS011;1020;48.854;8.830;2023-02-01T09:05:05;6.33;;;4.10;;
2029;SDS011;1020;48.854;8.830;2023-02-01T09:07:32;12.23;;;4.00;;
2029;SDS011;1020;48.854;8.830;2023-02-01T09:10:00;8.40;;;4.77;;
2029;SDS011;1020;48.854;8.830;2023-02-01T09:12:28;5.23;;;3.93;;
2029;SDS011;1020;48.854;8.830;2023-02-01T09:14:56;6.80;;;3.50;;
2029;SDS011;1020;48.854;8.830;2023-02-01T09:17:24;7.60;;;4.80;;
2029;SDS011;1020;48.854;8.830;2023-02-01T09:19:53;5.57;;;4.57;;
2029;SDS011;1020;48.854;8.830;2023-02-01T09:22:20;5.27;;;3.07;;
2029;SDS011;1020;48.854;8.830;2023-02-01T09:24:47;8.83;;;3.40;;
2029;SDS011;1020;48.854;8.830;2023-02-01T09:27:14;9.10;;;4.37;;
2029;SDS011;1020;48.854;8.830;2023-02-01T09:29:40;6.47;;;2.90;;
2029;SDS011;1020;48.854;8.830;2023-02-01T09:32:07;7.03;;;3.50;;
2029;SDS011;1020;48.854;8.830;2023-02-01T09:34:34;6.50;;;4.10;;
2029;SDS011;1020;48.854;8.830;2023-02-01T09:37:02;11.23;;;4.23;;
2029;SDS011;1020;48.854;8.830;2023-02-01T09:39:29;4.77;;;3.20;;
2029;SDS011;1020;48.854;8.830;2023-02-01T09:41:58;6.03;;;3.40;;
2029;SDS011;1020;48.854;8.830;2023-02-01T09:44:38;5.17;;;3.60;;
2029;SDS011;1020;48.854;8.830;2023-02-01T09:47:15;7.97;;;4.27;;
2029;SDS011;1020;48.854;8.830;2023-02-01T09:49:47;7.47;;;3.60;;
2029;SDS011;1020;48.854;8.830;2023-02-01T09:52:19;6.37;;;3.70;;
2029;SDS011;1020;48.854;8.830;2023-02-01T09:54:54;8.43;;;4.10;;
2029;SDS011;1020;48.854;8.830;2023-02-01T09:57:27;7.90;;;3.63;;
2029;SDS011;1020;48.854;8.830;2023-02-01T10:00:00;8.53;;;3.97;;
2029;SDS011;1020;48.854;8.830;2023-02-01T10:02:31;8.33;;;3.43;;
2029;SDS011;1020;48.854;8.830;2023-02-01T10:05:03;6.03;;;3.30;;
2029;SDS011;1020;48.854;8.830;2023-02-01T10:07:34;14.97;;;4.00;;
2029;SDS011;1020;48.854;8.830;2023-02-01T10:10:10;8.23;;;3.20;;
2029;SDS011;1020;48.854;8.830;2023-02-01T10:12:55;7.43;;;3.77;;
2029;SDS011;1020;48.854;8.830;2023-02-01T10:15:40;8.33;;;3.93;;
2029;SDS011;1020;48.854;8.830;2023-02-01T10:18:20;7.80;;;3.83;;
2029;SDS011;1020;48.854;8.830;2023-02-01T10:20:59;7.63;;;3.30;;
2029;SDS011;1020;48.854;8.830;2023-02-01T10:23:41;7.13;;;3.90;;
2029;SDS011;1020;48.854;8.830;2023-02-01T10:26:22;8.13;;;3.33;;
2029;SDS011;1020;48.854;8.830;2023-02-01T10:28:50;9.13;;;3.30;;
2029;SDS011;1020;48.854;8.830;2023-02-01T10:31:19;6.60;;;2.93;;
2029;SDS011;1020;48.854;8.830;2023-02-01T10:33:49;10.53;;;3.43;;
2029;SDS011;1020;48.854;8.830;2023-02-01T10:36:19;8.07;;;3.63;;
2029;SDS011;1020;48.854;8.830;2023-02-01T10:38:52;6.27;;;3.23;;
2029;SDS011;1020;48.854;8.830;2023-02-01T10:41:20;7.90;;;3.07;;
2029;SDS011;1020;48.854;8.830;2023-02-01T10:43:50;6.10;;;4.50;;
2029;SDS011;1020;48.854;8.830;2023-02-01T10:46:19;12.20;;;8.23;;
2029;SDS011;1020;48.854;8.830;2023-02-01T10:48:46;10.57;;;4.50;;
2029;SDS011;1020;48.854;8.830;2023-02-01T10:51:15;8.63;;;4.47;;
2029;SDS011;1020;48.854;8.830;2023-02-01T10:53:48;7.90;;;3.73;;
2029;SDS011;1020;48.854;8.830;2023-02-01T10:56:22;7.70;;;3.47;;
2029;SDS011;1020;48.854;8.830;2023-02-01T10:58:50;5.43;;;3.40;;
2029;SDS011;1020;48.854;8.830;2023-02-01T11:01:46;5.27;;;3.77;;
2029;SDS011;1020;48.854;8.830;2023-02-01T11:04:15;7.00;;;3.23;;
2029;SDS011;1020;48.854;8.830;2023-02-01T11:06:46;7.00;;;5.10;;
2029;SDS011;1020;48.854;8.830;2023-02-01T11:09:18;7.97;;;3.10;;
2029;SDS011;1020;48.854;8.830;2023-02-01T11:11:54;7.63;;;3.43;;
2029;SDS011;1020;48.854;8.830;2023-02-01T11:14:27;6.67;;;3.20;;
2029;SDS011;1020;48.854;8.830;2023-02-01T11:17:12;8.17;;;7.40;;
2029;SDS011;1020;48.854;8.830;2023-02-01T11:19:55;7.43;;;3.13;;
2029;SDS011;1020;48.854;8.830;2023-02-01T11:22:24;7.63;;;3.43;;
2029;SDS011;1020;48.854;8.830;2023-02-01T11:24:53;8.43;;;3.00;;
2029;SDS011;1020;48.854;8.830;2023-02-01T11:27:22;6.60;;;2.93;;
2029;SDS011;1020;48.854;8.830;2023-02-01T11:29:51;7.10;;;3.30;;
2029;SDS011;1020;48.854;8.830;2023-02-01T11:32:20;8.53;;;3.07;;
2029;SDS011;1020;48.854;8.830;2023-02-01T11:34:51;7.33;;;3.53;;
2029;SDS011;1020;48.854;8.830;2023-02-01T11:37:23;5.33;;;2.70;;
2029;SDS011;1020;48.854;8.830;2023-02-01T11:39:54;7.33;;;2.70;;
2029;SDS011;1020;48.854;8.830;2023-02-01T11:42:24;7.10;;;2.03;;
2029;SDS011;1020;48.854;8.830;2023-02-01T11:44:52;9.27;;;2.90;;
2029;SDS011;1020;48.854;8.830;2023-02-01T11:47:44;3.87;;;2.27;;
2029;SDS011;1020;48.854;8.830;2023-02-01T11:50:14;7.67;;;4.40;;
2029;SDS011;1020;48.854;8.830;2023-02-01T11:52:53;10.00;;;3.07;;
2029;SDS011;1020;48.854;8.830;2023-02-01T11:55:33;11.70;;;4.77;;
2029;SDS011;1020;48.854;8.830;2023-02-01T12:01:25;8.90;;;4.53;;
2029;SDS011;1020;48.854;8.830;2023-02-01T12:04:27;8.33;;;4.67;;
2029;SDS011;1020;48.854;8.830;2023-02-01T12:07:13;7.10;;;4.20;;
2029;SDS011;1020;48.854;8.830;2023-02-01T12:09:50;9.07;;;3.20;;
2029;SDS011;1020;48.854;8.830;2023-02-01T12:12:33;5.70;;;3.00;;
2029;SDS011;1020;48.854;8.830;2023-02-01T12:15:22;7.60;;;3.50;;
2029;SDS011;1020;48.854;8.830;2023-02-01T12:18:05;5.00;;;2.40;;
2029;SDS011;1020;48.854;8.830;2023-02-01T12:20:59;6.83;;;3.00;;
2029;SDS011;1020;48.854;8.830;2023-02-01T12:26:40;9.80;;;3.13;;
2029;SDS011;1020;48.854;8.830;2023-02-01T12:29:36;4.70;;;3.50;;
2029;SDS011;1020;48.854;8.830;2023-02-01T12:32:20;10.40;;;3.60;;
2029;SDS011;1020;48.854;8.830;2023-02-01T12:35:12;10.40;;;3.60;;
2029;SDS011;1020;48.854;8.830;2023-02-01T12:37:48;6.63;;;2.93;;
2029;SDS011;1020;48.854;8.830;2023-02-01T12:40:28;4.50;;;2.90;;
2029;SDS011;1020;48.854;8.830;2023-02-01T12:43:08;6.60;;;3.20;;
2029;SDS011;1020;48.854;8.830;2023-02-01T12:45:40;7.47;;;3.17;;
2029;SDS011;1020;48.854;8.830;2023-02-01T12:48:16;6.67;;;3.00;;
2029;SDS011;1020;48.854;8.830;2023-02-01T12:50:52;6.03;;;3.50;;
2029;SDS011;1020;48.854;8.830;2023-02-01T12:53:24;5.93;;;2.77;;
2029;SDS011;1020;48.854;8.830;2023-02-01T12:55:56;8.10;;;2.90;;
2029;SDS011;1020;48.854;8.830;2023-02-01T12:58:29;5.77;;;3.53;;
2029;SDS011;1020;48.854;8.830;2023-02-01T13:01:02;10.00;;;3.97;;
2029;SDS011;1020;48.854;8.830;2023-02-01T13:03:36;8.60;;;3.63;;
2029;SDS011;1020;48.854;8.830;2023-02-01T13:06:06;7.27;;;4.43;;
2029;SDS011;1020;48.854;8.830;2023-02-01T13:08:39;8.57;;;3.70;;
2029;SDS011;1020;48.854;8.830;2023-02-01T13:11:11;6.40;;;3.30;;
2029;SDS011;1020;48.854;8.830;2023-02-01T13:13:44;9.10;;;4.03;;
2029;SDS011;1020;48.854;8.830;2023-02-01T13:16:21;9.23;;;4.10;;
2029;SDS011;1020;48.854;8.830;2023-02-01T13:18:56;10.40;;;4.40;;
2029;SDS011;1020;48.854;8.830;2023-02-01T13:21:29;7.10;;;3.70;;
2029;SDS011;1020;48.854;8.830;2023-02-01T13:23:59;7.20;;;3.90;;
2029;SDS011;1020;48.854;8.830;2023-02-01T13:26:26;8.33;;;3.23;;
2029;SDS011;1020;48.854;8.830;2023-02-01T13:28:53;5.60;;;4.00;;
2029;SDS011;1020;48.854;8.830;2023-02-01T13:31:31;9.03;;;3.50;;
2029;SDS011;1020;48.854;8.830;2023-02-01T13:37:28;6.90;;;3.03;;
2029;SDS011;1020;48.854;8.830;2023-02-01T13:40:09;4.90;;;3.73;;
2029;SDS011;1020;48.854;8.830;2023-02-01T13:42:45;5.43;;;3.70;;
2029;SDS011;1020;48.854;8.830;2023-02-01T13:45:15;10.10;;;4.63;;
2029;SDS011;1020;48.854;8.830;2023-02-01T13:47:47;14.50;;;4.50;;
2029;SDS011;1020;48.854;8.830;2023-02-01T13:50:21;5.80;;;3.37;;
2029;SDS011;1020;48.854;8.830;2023-02-01T13:52:51;11.80;;;3.70;;
2029;SDS011;1020;48.854;8.830;2023-02-01T13:55:28;6.27;;;3.40;;
2029;SDS011;1020;48.854;8.830;2023-02-01T13:58:01;7.93;;;3.43;;
2029;SDS011;1020;48.854;8.830;2023-02-01T14:00:31;8.70;;;3.20;;
2029;SDS011;1020;48.854;8.830;2023-02-01T14:05:56;6.57;;;3.27;;
2029;SDS011;1020;48.854;8.830;2023-02-01T14:11:40;13.70;;;3.77;;
2029;SDS011;1020;48.854;8.830;2023-02-01T14:26:18;4.47;;;2.80;;
2029;SDS011;1020;48.854;8.830;2023-02-01T14:28:56;5.40;;;2.90;;
2029;SDS011;1020;48.854;8.830;2023-02-01T14:31:31;11.90;;;3.73;;
2029;SDS011;1020;48.854;8.830;2023-02-01T14:34:12;7.50;;;3.37;;
2029;SDS011;1020;48.854;8.830;2023-02-01T14:36:43;8.87;;;3.80;;
2029;SDS011;1020;48.854;8.830;2023-02-01T14:39:22;11.20;;;3.57;;
2029;SDS011;1020;48.854;8.830;2023-02-01T14:41:56;6.70;;;3.27;;
2029;SDS011;1020;48.854;8.830;2023-02-01T14:44:27;5.60;;;3.40;;
2029;SDS011;1020;48.854;8.830;2023-02-01T14:47:03;6.00;;;2.77;;
2029;SDS011;1020;48.854;8.830;2023-02-01T14:49:49;8.60;;;3.60;;
2029;SDS011;1020;48.854;8.830;2023-02-01T14:52:22;8.03;;;3.40;;
2029;SDS011;1020;48.854;8.830;2023-02-01T14:54:57;9.10;;;2.63;;
2029;SDS011;1020;48.854;8.830;2023-02-01T14:57:31;8.53;;;3.00;;
2029;SDS011;1020;48.854;8.830;2023-02-01T15:00:06;7.53;;;2.93;;
2029;SDS011;1020;48.854;8.830;2023-02-01T15:02:44;6.87;;;2.97;;
2029;SDS011;1020;48.854;8.830;2023-02-01T15:05:22;6.80;;;3.40;;
2029;SDS011;1020;48.854;8.830;2023-02-01T15:07:56;5.90;;;3.67;;
2029;SDS011;1020;48.854;8.830;2023-02-01T15:10:27;7.20;;;3.07;;
2029;SDS011;1020;48.854;8.830;2023-02-01T15:12:58;8.47;;;2.80;;
2029;SDS011;1020;48.854;8.830;2023-02-01T15:15:25;6.03;;;2.40;;
2029;SDS011;1020;48.854;8.830;2023-02-01T15:17:52;5.03;;;2.60;;
2029;SDS011;1020;48.854;8.830;2023-02-01T15:20:22;4.20;;;2.23;;
2029;SDS011;1020;48.854;8.830;2023-02-01T15:22:53;6.43;;;4.00;;
2029;SDS011;1020;48.854;8.830;2023-02-01T15:25:22;3.97;;;2.03;;
2029;SDS011;1020;48.854;8.830;2023-02-01T15:27:51;4.87;;;2.53;;
2029;SDS011;1020;48.854;8.830;2023-02-01T15:30:22;4.33;;;3.10;;
2029;SDS011;1020;48.854;8.830;2023-02-01T15:32:51;7.60;;;3.77;;
2029;SDS011;1020;48.854;8.830;2023-02-01T15:35:33;7.63;;;3.47;;
2029;SDS011;1020;48.854;8.830;2023-02-01T15:41:04;6.13;;;3.73;;
2029;SDS011;1020;48.854;8.830;2023-02-01T15:43:39;7.07;;;3.50;;
2029;SDS011;1020;48.854;8.830;2023-02-01T15:46:09;9.03;;;2.97;;
2029;SDS011;1020;48.854;8.830;2023-02-01T15:48:39;5.53;;;3.00;;
2029;SDS011;1020;48.854;8.830;2023-02-01T15:51:11;6.37;;;3.07;;
2029;SDS011;1020;48.854;8.830;2023-02-01T15:53:43;8.80;;;3.00;;
2029;SDS011;1020;48.854;8.830;2023-02-01T15:56:12;6.33;;;3.40;;
2029;SDS011;1020;48.854;8.830;2023-02-01T15:58:42;10.57;;;3.70;;
2029;SDS011;1020;48.854;8.830;2023-02-01T16:01:14;6.20;;;2.40;;
2029;SDS011;1020;48.854;8.830;2023-02-01T16:03:42;5.50;;;2.70;;
2029;SDS011;1020;48.854;8.830;2023-02-01T16:06:10;5.83;;;2.77;;
2029;SDS011;1020;48.854;8.830;2023-02-01T16:08:48;7.00;;;2.93;;
2029;SDS011;1020;48.854;8.830;2023-02-01T16:11:24;5.50;;;3.03;;
2029;SDS011;1020;48.854;8.830;2023-02-01T16:13:56;6.60;;;2.73;;
2029;SDS011;1020;48.854;8.830;2023-02-01T16:16:24;4.77;;;2.90;;
2029;SDS011;1020;48.854;8.830;2023-02-01T16:18:51;4.30;;;2.10;;
2029;SDS011;1020;48.854;8.830;2023-02-01T16:21:18;6.17;;;2.60;;
2029;SDS011;1020;48.854;8.830;2023-02-01T16:23:47;9.47;;;3.23;;
2029;SDS011;1020;48.854;8.830;2023-02-01T16:26:15;7.93;;;3.23;;
2029;SDS011;1020;48.854;8.830;2023-02-01T16:28:42;6.77;;;3.03;;
2029;SDS011;1020;48.854;8.830;2023-02-01T16:31:11;4.63;;;2.83;;
2029;SDS011;1020;48.854;8.830;2023-02-01T16:33:44;10.60;;;3.30;;
2029;SDS011;1020;48.854;8.830;2023-02-01T16:36:12;7.40;;;3.07;;
2029;SDS011;1020;48.854;8.830;2023-02-01T16:38:39;3.37;;;2.43;;